createdAt,value
2023-09-29T00:02:26.003Z,18.69
2023-09-29T00:05:16.239Z,18.61
2023-09-29T00:08:04.416Z,18.61
2023-09-29T00:10:52.417Z,18.53
2023-09-29T00:13:40.389Z,18.56
2023-09-29T00:16:29.662Z,18.62
2023-09-29T00:19:17.348Z,18.39
2023-09-29T00:22:05.913Z,18.54
2023-09-29T00:24:54.457Z,18.47
2023-09-29T00:27:42.237Z,18.55
2023-09-29T00:30:30.146Z,18.52
2023-09-29T00:33:19.376Z,18.50
2023-09-29T00:36:08.126Z,18.60
2023-09-29T00:38:56.074Z,18.49
2023-09-29T00:41:44.175Z,18.40
2023-09-29T00:44:31.868Z,18.37
2023-09-29T00:47:21.335Z,18.50
2023-09-29T00:50:13.412Z,18.37
2023-09-29T00:53:07.153Z,18.46
2023-09-29T00:55:55.251Z,18.55
2023-09-29T00:58:43.457Z,18.54
2023-09-29T01:01:31.398Z,18.49
2023-09-29T01:04:19.771Z,18.42
2023-09-29T01:07:09.936Z,18.12
2023-09-29T01:09:58.185Z,18.49
2023-09-29T01:12:46.016Z,18.52
2023-09-29T01:15:35.244Z,18.44
2023-09-29T01:18:24.289Z,18.48
2023-09-29T01:21:12.459Z,18.44
2023-09-29T01:24:01.861Z,18.49
2023-09-29T01:26:50.329Z,18.46
2023-09-29T01:29:38.277Z,18.38
2023-09-29T01:32:26.324Z,18.45
2023-09-29T01:35:16.253Z,18.34
2023-09-29T01:38:04.129Z,18.27
2023-09-29T01:40:53.236Z,18.31
2023-09-29T01:43:41.137Z,18.24
2023-09-29T01:46:30.595Z,18.34
2023-09-29T01:49:18.514Z,18.30
2023-09-29T01:52:06.382Z,18.25
2023-09-29T01:54:56.685Z,18.25
2023-09-29T01:57:46.054Z,18.21
2023-09-29T02:00:33.984Z,18.23
2023-09-29T02:03:22.423Z,18.27
2023-09-29T02:06:10.176Z,18.36
2023-09-29T02:08:58.861Z,18.25
2023-09-29T02:11:47.350Z,18.15
2023-09-29T02:14:36.386Z,18.23
2023-09-29T02:17:24.677Z,18.07
2023-09-29T02:20:16.359Z,18.07
2023-09-29T02:23:07.020Z,18.23
2023-09-29T02:25:54.776Z,18.13
2023-09-29T02:28:42.721Z,18.10
2023-09-29T02:31:33.013Z,18.12
2023-09-29T02:34:20.831Z,18.09
2023-09-29T02:37:08.769Z,18.12
2023-09-29T02:39:57.063Z,18.09
2023-09-29T02:42:45.684Z,18.21
2023-09-29T02:45:33.458Z,18.12
2023-09-29T02:48:23.096Z,18.18
2023-09-29T02:51:18.314Z,18.21
2023-09-29T02:54:06.404Z,18.16
2023-09-29T02:56:54.162Z,18.18
2023-09-29T02:59:42.091Z,18.23
2023-09-29T03:02:29.907Z,18.29
2023-09-29T03:05:22.510Z,18.28
2023-09-29T03:08:10.530Z,18.06
2023-09-29T03:10:58.291Z,18.22
2023-09-29T03:13:46.196Z,17.77
2023-09-29T03:16:33.890Z,18.29
2023-09-29T03:19:21.911Z,18.31
2023-09-29T03:22:14.100Z,18.27
2023-09-29T03:25:02.121Z,18.24
2023-09-29T03:27:49.860Z,18.26
2023-09-29T03:30:37.780Z,18.18
2023-09-29T03:33:25.678Z,18.26
2023-09-29T03:36:13.818Z,18.17
2023-09-29T03:39:06.514Z,18.24
2023-09-29T03:41:55.738Z,18.27
2023-09-29T03:44:45.359Z,18.23
2023-09-29T03:47:34.182Z,18.23
2023-09-29T03:50:21.885Z,18.18
2023-09-29T03:53:10.027Z,18.17
2023-09-29T03:55:59.104Z,18.22
2023-09-29T03:58:47.113Z,18.26
2023-09-29T04:01:35.521Z,18.24
2023-09-29T04:04:23.620Z,18.18
2023-09-29T04:07:11.491Z,18.20
2023-09-29T04:09:59.224Z,18.21
2023-09-29T04:12:48.360Z,18.12
2023-09-29T04:15:36.675Z,18.14
2023-09-29T04:18:24.648Z,18.20
2023-09-29T04:21:14.208Z,18.22
2023-09-29T04:24:01.943Z,18.27
2023-09-29T04:26:49.694Z,18.23
2023-09-29T04:29:38.749Z,18.25
2023-09-29T04:32:26.505Z,18.36
2023-09-29T04:35:14.314Z,18.38
2023-09-29T04:38:03.199Z,18.45
2023-09-29T04:40:50.966Z,18.43
2023-09-29T04:43:38.976Z,17.85
2023-09-29T04:46:28.183Z,18.33
2023-09-29T04:49:15.964Z,18.43
2023-09-29T04:52:04.550Z,18.35
2023-09-29T04:54:52.259Z,18.42
2023-09-29T04:57:40.086Z,18.38
2023-09-29T05:00:28.686Z,18.35
2023-09-29T05:03:18.118Z,18.31
2023-09-29T05:06:06.002Z,18.53
2023-09-29T05:08:54.010Z,18.58
2023-09-29T05:11:41.868Z,18.52
2023-09-29T05:14:29.842Z,18.57
2023-09-29T05:17:17.693Z,18.55
2023-09-29T05:20:08.284Z,18.54
2023-09-29T05:22:56.263Z,18.78
2023-09-29T05:25:47.955Z,18.76
2023-09-29T05:28:36.351Z,18.74
2023-09-29T05:31:24.450Z,18.74
2023-09-29T05:34:12.205Z,18.94
2023-09-29T05:37:01.610Z,18.98
2023-09-29T05:39:49.356Z,18.89
2023-09-29T05:42:49.293Z,19.06
2023-09-29T05:45:40.257Z,19.06
2023-09-29T05:48:28.056Z,18.68
2023-09-29T05:51:15.962Z,19.07
2023-09-29T05:54:05.440Z,19.01
2023-09-29T05:56:53.217Z,19.01
2023-09-29T05:59:41.090Z,18.88
2023-09-29T06:02:29.290Z,18.98
2023-09-29T06:05:17.195Z,18.83
2023-09-29T06:08:05.184Z,18.79
2023-09-29T06:10:54.535Z,18.73
2023-09-29T06:13:43.349Z,18.76
2023-09-29T06:16:31.167Z,18.82
2023-09-29T06:19:18.924Z,18.86
2023-09-29T06:22:06.854Z,18.77
2023-09-29T06:24:54.771Z,18.82
2023-09-29T06:27:43.885Z,18.82
2023-09-29T06:30:31.941Z,18.87
2023-09-29T06:33:19.761Z,18.78
2023-09-29T06:36:07.871Z,18.70
2023-09-29T06:38:55.623Z,18.85
2023-09-29T06:41:43.486Z,18.73
2023-09-29T06:44:33.951Z,18.93
2023-09-29T06:47:21.666Z,18.95
2023-09-29T06:50:11.957Z,19.22
2023-09-29T06:52:59.798Z,19.24
2023-09-29T06:55:47.583Z,19.37
2023-09-29T06:58:35.307Z,19.48
2023-09-29T07:01:24.416Z,19.66
2023-09-29T07:04:12.419Z,19.77
2023-09-29T07:07:00.340Z,19.92
2023-09-29T07:09:48.239Z,19.55
2023-09-29T07:12:35.888Z,20.11
2023-09-29T07:15:24.796Z,20.30
2023-09-29T07:18:15.284Z,20.33
2023-09-29T07:21:03.412Z,20.67
2023-09-29T07:23:51.212Z,20.84
2023-09-29T07:26:39.774Z,20.95
2023-09-29T07:29:27.835Z,21.08
2023-09-29T07:32:16.698Z,21.21
2023-09-29T07:35:08.650Z,21.33
2023-09-29T07:37:56.393Z,21.40
2023-09-29T07:40:44.611Z,21.34
2023-09-29T07:43:32.415Z,21.58
2023-09-29T07:46:20.212Z,21.52
2023-09-29T07:49:08.522Z,21.69
2023-09-29T07:51:58.353Z,21.77
2023-09-29T07:54:46.166Z,21.81
2023-09-29T07:57:34.008Z,21.76
2023-09-29T08:00:21.936Z,22.05
2023-09-29T08:03:09.881Z,22.02
2023-09-29T08:05:57.802Z,22.03
2023-09-29T08:08:49.127Z,22.03
2023-09-29T08:11:37.930Z,22.14
2023-09-29T08:14:25.661Z,22.22
2023-09-29T08:17:13.475Z,22.23
2023-09-29T08:20:01.512Z,22.23
2023-09-29T08:22:51.127Z,22.35
2023-09-29T08:25:40.726Z,22.37
2023-09-29T08:28:28.975Z,22.49
2023-09-29T08:31:17.204Z,22.57
2023-09-29T08:34:05.945Z,22.66
2023-09-29T08:36:54.140Z,22.15
2023-09-29T08:39:41.775Z,22.77
2023-09-29T08:42:38.074Z,22.71
2023-09-29T08:45:29.622Z,22.84
2023-09-29T08:48:19.396Z,22.72
2023-09-29T08:51:07.942Z,22.90
2023-09-29T08:53:57.736Z,23.05
2023-09-29T08:56:47.870Z,23.10
2023-09-29T08:59:38.319Z,23.15
2023-09-29T09:02:26.426Z,23.19
2023-09-29T09:05:16.176Z,23.22
2023-09-29T09:08:04.178Z,23.12
2023-09-29T09:10:59.350Z,23.17
2023-09-29T09:13:59.981Z,23.10
2023-09-29T09:16:49.246Z,23.11
2023-09-29T09:19:45.264Z,23.27
2023-09-29T09:22:46.030Z,23.34
2023-09-29T09:25:37.568Z,23.41
2023-09-29T09:28:32.140Z,23.43
2023-09-29T09:31:19.981Z,23.38
2023-09-29T09:34:09.559Z,23.24
2023-09-29T09:36:57.705Z,23.12
2023-09-29T09:39:46.912Z,23.21
2023-09-29T09:42:35.597Z,23.18
2023-09-29T09:45:27.110Z,23.20
2023-09-29T09:48:17.167Z,23.32
2023-09-29T09:51:08.714Z,23.67
2023-09-29T09:53:59.968Z,23.67
2023-09-29T09:56:56.930Z,23.52
2023-09-29T09:59:45.506Z,23.81
2023-09-29T10:02:34.636Z,23.77
2023-09-29T10:05:25.024Z,23.79
2023-09-29T10:08:25.623Z,23.79
2023-09-29T10:11:14.935Z,24.05
2023-09-29T10:14:05.190Z,24.17
2023-09-29T10:17:03.758Z,23.89
2023-09-29T10:19:56.217Z,24.06
2023-09-29T10:22:44.784Z,23.70
2023-09-29T10:25:35.064Z,24.08
2023-09-29T10:28:32.554Z,24.04
2023-09-29T10:31:29.056Z,24.16
2023-09-29T10:34:27.433Z,24.23
2023-09-29T10:37:16.070Z,24.27
2023-09-29T10:40:23.536Z,24.16
2023-09-29T10:43:12.500Z,24.34
2023-09-29T10:46:08.706Z,24.37
2023-09-29T10:48:56.916Z,24.40
2023-09-29T10:51:44.725Z,24.24
2023-09-29T10:54:32.444Z,24.44
2023-09-29T10:57:22.735Z,24.40
2023-09-29T11:00:12.285Z,24.36
2023-09-29T11:03:00.646Z,24.62
2023-09-29T11:05:53.059Z,24.51
2023-09-29T11:08:44.389Z,24.39
2023-09-29T11:11:36.236Z,24.39
2023-09-29T11:14:27.644Z,24.42
2023-09-29T11:17:15.501Z,24.32
2023-09-29T11:20:08.395Z,24.33
2023-09-29T11:23:08.197Z,24.42
2023-09-29T11:25:59.826Z,24.33
2023-09-29T11:28:49.805Z,24.24
2023-09-29T11:31:39.960Z,24.20
2023-09-29T11:34:30.669Z,24.34
2023-09-29T11:37:20.160Z,24.31
2023-09-29T11:40:12.679Z,24.27
2023-09-29T11:43:00.452Z,24.34
2023-09-29T11:45:48.389Z,24.51
2023-09-29T11:48:38.333Z,24.58
2023-09-29T11:51:27.321Z,24.61
2023-09-29T11:54:15.854Z,24.35
2023-09-29T11:57:03.951Z,24.52
2023-09-29T11:59:54.025Z,24.58
2023-09-29T12:02:43.323Z,24.56
2023-09-29T12:05:32.536Z,24.64
2023-09-29T12:08:20.853Z,24.73
2023-09-29T12:11:09.045Z,24.72
2023-09-29T12:13:57.169Z,24.70
2023-09-29T12:16:46.068Z,24.56
2023-09-29T12:19:34.227Z,24.62
2023-09-29T12:22:23.452Z,24.51
2023-09-29T12:25:12.893Z,24.51
2023-09-29T12:28:01.155Z,24.35
2023-09-29T12:30:48.954Z,24.56
2023-09-29T12:33:36.852Z,24.71
2023-09-29T12:36:24.742Z,24.62
2023-09-29T12:39:14.543Z,24.67
2023-09-29T12:42:02.453Z,24.56
2023-09-29T12:44:50.612Z,24.57
2023-09-29T12:47:38.557Z,24.69
2023-09-29T12:50:26.854Z,24.52
2023-09-29T12:53:14.605Z,24.51
2023-09-29T12:56:03.712Z,24.51
2023-09-29T12:58:51.684Z,24.51
2023-09-29T13:01:40.789Z,24.70
2023-09-29T13:04:30.641Z,24.64
2023-09-29T13:07:18.713Z,24.54
2023-09-29T13:10:08.489Z,24.64
2023-09-29T13:12:57.780Z,24.61
2023-09-29T13:15:45.920Z,24.69
2023-09-29T13:18:34.135Z,24.72
2023-09-29T13:21:22.079Z,24.70
2023-09-29T13:24:11.731Z,24.77
2023-09-29T13:26:59.855Z,24.79
2023-09-29T13:29:51.906Z,24.67
2023-09-29T13:32:40.088Z,24.76
2023-09-29T13:35:29.730Z,24.81
2023-09-29T13:38:18.907Z,24.77
2023-09-29T13:41:07.317Z,24.78
2023-09-29T13:43:55.281Z,24.67
2023-09-29T13:47:00.623Z,24.53
2023-09-29T13:49:51.669Z,24.67
2023-09-29T13:52:39.593Z,24.68
2023-09-29T13:55:27.941Z,24.82
2023-09-29T13:58:15.705Z,24.78
2023-09-29T14:01:03.556Z,24.76
2023-09-29T14:03:57.511Z,24.65
2023-09-29T14:06:45.620Z,24.73
2023-09-29T14:09:33.629Z,24.66
2023-09-29T14:12:21.406Z,24.65
2023-09-29T14:15:10.801Z,24.77
2023-09-29T14:17:59.651Z,24.80
2023-09-29T14:20:48.968Z,24.71
2023-09-29T14:23:37.024Z,24.76
2023-09-29T14:26:24.717Z,24.52
2023-09-29T14:29:12.747Z,24.67
2023-09-29T14:32:00.457Z,24.62
2023-09-29T14:34:48.561Z,24.63
2023-09-29T14:37:37.904Z,24.50
2023-09-29T14:40:25.566Z,24.49
2023-09-29T14:43:13.917Z,24.51
2023-09-29T14:46:05.531Z,24.50
2023-09-29T14:48:54.212Z,24.50
2023-09-29T14:51:41.979Z,24.40
2023-09-29T14:54:31.149Z,24.33
2023-09-29T14:57:19.490Z,24.33
2023-09-29T15:00:08.196Z,24.34
2023-09-29T15:02:56.175Z,24.32
2023-09-29T15:05:44.025Z,24.21
2023-09-29T15:08:32.103Z,24.26
2023-09-29T15:11:22.378Z,24.21
2023-09-29T15:14:10.164Z,24.13
2023-09-29T15:16:57.983Z,24.19
2023-09-29T15:19:45.791Z,24.19
2023-09-29T15:22:33.713Z,24.06
2023-09-29T15:25:21.374Z,23.95
2023-09-29T15:28:11.398Z,23.89
2023-09-29T15:31:00.793Z,23.89
2023-09-29T15:33:48.626Z,23.85
2023-09-29T15:36:36.966Z,23.90
2023-09-29T15:39:24.792Z,23.73
2023-09-29T15:42:12.661Z,23.84
2023-09-29T15:45:02.193Z,23.68
2023-09-29T15:47:50.205Z,23.62
2023-09-29T15:50:38.524Z,23.61
2023-09-29T15:53:26.399Z,23.61
2023-09-29T15:56:14.141Z,23.50
2023-09-29T15:59:02.363Z,23.44
2023-09-29T16:01:51.516Z,23.51
2023-09-29T16:04:39.369Z,23.36
2023-09-29T16:07:27.260Z,23.35
2023-09-29T16:10:19.354Z,23.38
2023-09-29T16:13:08.087Z,23.34
2023-09-29T16:15:57.296Z,23.20
2023-09-29T16:18:46.807Z,23.21
2023-09-29T16:21:35.484Z,23.30
2023-09-29T16:24:23.203Z,23.00
2023-09-29T16:27:11.217Z,23.16
2023-09-29T16:30:00.377Z,22.94
2023-09-29T16:32:48.385Z,23.02
2023-09-29T16:35:38.990Z,22.90
2023-09-29T16:38:26.709Z,22.93
2023-09-29T16:41:24.978Z,22.83
2023-09-29T16:44:12.674Z,22.62
2023-09-29T16:47:03.397Z,22.84
2023-09-29T16:49:51.965Z,22.88
2023-09-29T16:52:41.112Z,22.74
2023-09-29T16:55:29.165Z,22.85
2023-09-29T16:58:16.882Z,22.67
2023-09-29T17:01:06.025Z,22.38
2023-09-29T17:03:54.229Z,22.52
2023-09-29T17:06:43.395Z,22.46
2023-09-29T17:09:32.758Z,22.45
2023-09-29T17:12:21.446Z,22.47
2023-09-29T17:15:12.417Z,22.40
2023-09-29T17:18:00.598Z,22.31
2023-09-29T17:20:48.382Z,22.20
2023-09-29T17:23:36.376Z,22.28
2023-09-29T17:26:25.807Z,22.35
2023-09-29T17:29:14.328Z,22.38
2023-09-29T17:32:02.212Z,22.33
2023-09-29T17:34:49.953Z,22.35
2023-09-29T17:37:38.026Z,22.43
2023-09-29T17:40:25.868Z,22.40
2023-09-29T17:43:15.386Z,22.29
2023-09-29T17:46:04.341Z,22.39
2023-09-29T17:48:52.425Z,22.33
2023-09-29T17:51:40.303Z,22.24
2023-09-29T17:54:28.415Z,22.09
2023-09-29T17:57:19.574Z,22.12
2023-09-29T18:00:10.316Z,22.19
2023-09-29T18:02:58.521Z,22.44
2023-09-29T18:05:46.384Z,22.28
2023-09-29T18:08:34.468Z,22.20
2023-09-29T18:11:22.550Z,22.20
2023-09-29T18:14:10.410Z,21.99
2023-09-29T18:16:59.961Z,21.86
2023-09-29T18:19:48.422Z,21.90
2023-09-29T18:22:36.379Z,21.80
2023-09-29T18:25:24.235Z,21.65
2023-09-29T18:28:12.381Z,21.70
2023-09-29T18:31:00.391Z,21.87
2023-09-29T18:33:49.978Z,21.66
2023-09-29T18:36:41.046Z,21.79
2023-09-29T18:39:29.165Z,21.63
2023-09-29T18:42:17.523Z,21.43
2023-09-29T18:45:06.707Z,21.32
2023-09-29T18:47:55.298Z,21.11
2023-09-29T18:50:45.805Z,21.04
2023-09-29T18:53:34.542Z,20.90
2023-09-29T18:56:22.617Z,20.65
2023-09-29T18:59:12.676Z,20.44
2023-09-29T19:02:02.383Z,20.26
2023-09-29T19:04:50.891Z,20.19
2023-09-29T19:07:40.307Z,20.23
2023-09-29T19:10:28.927Z,20.14
2023-09-29T19:13:16.895Z,19.95
2023-09-29T19:16:07.331Z,19.92
2023-09-29T19:18:57.416Z,20.06
2023-09-29T19:21:45.965Z,20.04
2023-09-29T19:24:35.484Z,19.86
2023-09-29T19:27:24.660Z,19.96
2023-09-29T19:30:13.710Z,19.92
2023-09-29T19:33:01.541Z,19.83
2023-09-29T19:35:49.804Z,19.96
2023-09-29T19:38:37.500Z,19.92
2023-09-29T19:41:28.821Z,19.68
2023-09-29T19:44:16.767Z,19.77
2023-09-29T19:47:04.859Z,19.73
2023-09-29T19:49:53.445Z,19.64
2023-09-29T19:52:41.568Z,19.56
2023-09-29T19:55:30.171Z,19.66
2023-09-29T19:58:19.380Z,19.55
2023-09-29T20:01:08.440Z,19.65
2023-09-29T20:03:56.738Z,19.51
2023-09-29T20:06:44.785Z,19.47
2023-09-29T20:09:33.056Z,19.59
2023-09-29T20:12:20.902Z,19.50
2023-09-29T20:15:11.518Z,19.54
2023-09-29T20:17:59.415Z,19.54
2023-09-29T20:20:47.895Z,19.54
2023-09-29T20:23:35.823Z,19.51
2023-09-29T20:26:24.558Z,19.59
2023-09-29T20:29:12.468Z,19.44
2023-09-29T20:32:03.537Z,19.35
2023-09-29T20:34:51.294Z,19.46
2023-09-29T20:37:38.955Z,19.40
2023-09-29T20:40:26.709Z,19.64
2023-09-29T20:43:14.962Z,19.43
2023-09-29T20:46:02.676Z,19.62
2023-09-29T20:48:52.132Z,19.43
2023-09-29T20:51:40.679Z,19.44
2023-09-29T20:54:28.695Z,19.40
2023-09-29T20:57:16.656Z,19.43
2023-09-29T21:00:04.584Z,19.38
2023-09-29T21:02:52.936Z,19.11
2023-09-29T21:05:41.994Z,19.50
2023-09-29T21:08:29.912Z,19.53
2023-09-29T21:11:17.594Z,19.54
2023-09-29T21:14:06.036Z,19.51
2023-09-29T21:16:54.432Z,19.51
2023-09-29T21:19:42.187Z,19.66
2023-09-29T21:22:31.302Z,19.56
2023-09-29T21:25:19.282Z,19.49
2023-09-29T21:28:07.252Z,19.66
2023-09-29T21:30:55.328Z,19.38
2023-09-29T21:33:43.657Z,19.74
2023-09-29T21:36:31.433Z,19.95
2023-09-29T21:39:20.778Z,19.41
2023-09-29T21:42:08.630Z,19.48
2023-09-29T21:44:56.300Z,19.11
2023-09-29T21:47:43.984Z,19.44
2023-09-29T21:50:31.814Z,19.33
2023-09-29T21:53:19.641Z,19.49
2023-09-29T21:56:08.896Z,19.22
2023-09-29T21:58:57.477Z,19.10
2023-09-29T22:01:45.109Z,19.08
2023-09-29T22:04:32.940Z,19.00
2023-09-29T22:07:20.916Z,18.89
2023-09-29T22:10:10.192Z,19.02
2023-09-29T22:12:59.339Z,18.90
2023-09-29T22:15:47.128Z,18.85
2023-09-29T22:18:35.730Z,18.94
2023-09-29T22:21:23.695Z,18.90
2023-09-29T22:24:12.415Z,19.15
2023-09-29T22:27:00.262Z,18.80
2023-09-29T22:29:49.401Z,18.74
2023-09-29T22:32:37.111Z,18.89
2023-09-29T22:35:24.969Z,18.92
2023-09-29T22:38:13.374Z,18.99
2023-09-29T22:41:01.917Z,18.80
2023-09-29T22:43:50.054Z,18.78
2023-09-29T22:46:39.024Z,18.66
2023-09-29T22:49:27.212Z,18.53
2023-09-29T22:52:15.074Z,19.19
2023-09-29T22:55:02.841Z,18.90
2023-09-29T22:57:50.707Z,18.99
2023-09-29T23:00:38.601Z,18.78
2023-09-29T23:03:30.606Z,18.91
2023-09-29T23:06:18.488Z,18.80
2023-09-29T23:09:07.239Z,18.72
2023-09-29T23:11:57.384Z,18.52
2023-09-29T23:14:46.244Z,18.82
2023-09-29T23:17:34.552Z,18.93
2023-09-29T23:20:23.964Z,19.00
2023-09-29T23:23:11.928Z,19.04
2023-09-29T23:25:59.981Z,18.96
2023-09-29T23:28:47.934Z,19.06
2023-09-29T23:31:35.787Z,18.92
2023-09-29T23:34:24.106Z,18.98
2023-09-29T23:37:13.425Z,18.78
2023-09-29T23:40:01.504Z,18.65
2023-09-29T23:42:49.570Z,18.56
2023-09-29T23:45:37.351Z,18.68
2023-09-29T23:48:25.222Z,18.57
2023-09-29T23:51:13.210Z,18.51
2023-09-29T23:54:02.915Z,18.53
2023-09-29T23:56:50.813Z,18.35
2023-09-29T23:59:38.529Z,18.25
